Mountain Home, Idaho
Current Conditions -  °F | °C
As of 5:58 AM on Saturday 25 Oct 2014 (Local Time) from KMUO Reporting Station
Clear Clear  
Wind Chill: 41°   Ceiling: Unl
Heat Index: 46°   Visibility: 10mi
Dew Point: 40°   Wind: 12mph
Humidity: 80%   Direction: 130°SE
Pressure: 29.86"   Gusts: NA
Location:  43.13°N, 115.69°W
Report Text: KMUO 251158Z AUTO 13010KT 10SM CLR 08/05 A2986 RMK AO2 SLP101 60000 T00780045 10085 20055 57016
Loading
Personal Weather Stations






























Interactive Weather Map
Tropical Storm Tracking
New forecast layout! Learn more

10-Day Weather Forecast

Advertisements
Track Severe Weather on mobile